Time;durP1;ratioP1;P1;durP2;ratioP2;P2;SDS_P1;SDS_P2;PMS_P1;PMS_P2;Temp;Humidity;BMP_temperature;BMP_pressure;BME280_temperature;BME280_humidity;BME280_pressure;Samples;Min_cycle;Max_cycle;Signal;HPM_P1;HPM_P2
2021/10/05 00:01:13;;;;;;;;;2.25;2.25;;;;;-146.80;100.00;64830.25;5076863;28;45509;-65
2021/10/05 00:03:38;;;;;;;;;2.50;2.00;;;;;-146.80;100.00;64830.25;5078259;27;45464;-66
2021/10/05 00:06:04;;;;;;;;;3.00;3.00;;;;;-146.80;100.00;64830.25;5078012;27;45405;-68
2021/10/05 00:08:29;;;;;;;;;7.00;2.75;;;;;-146.80;100.00;64830.25;5077945;27;45345;-63
2021/10/05 00:10:55;;;;;;;;;1.25;1.25;;;;;-146.80;100.00;64830.25;5078412;27;45468;-62
2021/10/05 00:13:21;;;;;;;;;3.75;2.75;;;;;-146.80;100.00;64830.25;5078284;27;45521;-61
2021/10/05 00:15:46;;;;;;;;;3.75;2.25;;;;;-146.80;100.00;64830.25;5077802;27;46420;-62
2021/10/05 00:18:12;;;;;;;;;2.25;2.00;;;;;-146.80;100.00;64830.25;5077886;27;45513;-66
2021/10/05 00:20:37;;;;;;;;;3.50;3.00;;;;;-146.80;100.00;64830.25;5079064;28;46014;-65
2021/10/05 00:23:02;;;;;;;;;3.00;2.00;;;;;-146.80;100.00;64830.25;5077308;28;45579;-65
2021/10/05 00:25:28;;;;;;;;;3.00;2.00;;;;;-146.80;100.00;64830.25;5078172;27;46301;-63
2021/10/05 00:27:53;;;;;;;;;2.00;2.00;;;;;-146.80;100.00;64830.25;5077658;27;45376;-63
2021/10/05 00:30:19;;;;;;;;;1.75;1.50;;;;;-146.80;100.00;64830.25;5077876;27;45197;-63
2021/10/05 00:32:45;;;;;;;;;3.00;2.25;;;;;-146.80;100.00;64830.25;5077986;27;45593;-63
2021/10/05 00:35:10;;;;;;;;;2.25;2.25;;;;;-146.80;100.00;64830.25;5077370;27;45331;-62
2021/10/05 00:37:36;;;;;;;;;3.00;2.00;;;;;-146.80;100.00;64830.25;5077703;27;45279;-64
2021/10/05 00:40:03;;;;;;;;;3.00;2.00;;;;;-146.80;100.00;64830.25;5077826;27;45323;-63
2021/10/05 00:42:28;;;;;;;;;2.00;1.00;;;;;-146.80;100.00;64830.25;5078021;27;45589;-62
2021/10/05 00:44:54;;;;;;;;;2.00;2.00;;;;;-146.80;100.00;64830.25;5077374;27;45930;-62
2021/10/05 00:47:19;;;;;;;;;3.00;2.00;;;;;-146.80;100.00;64830.25;5077359;27;45399;-63
2021/10/05 00:49:47;;;;;;;;;4.50;3.00;;;;;-146.80;100.00;64830.25;5092896;27;45875;-63
2021/10/05 00:52:14;;;;;;;;;3.00;1.75;;;;;-146.80;100.00;64830.25;5077564;28;45505;-64
2021/10/05 00:54:41;;;;;;;;;2.75;1.50;;;;;-146.80;100.00;64830.25;5077357;27;46560;-62
2021/10/05 00:57:08;;;;;;;;;2.50;2.00;;;;;-146.80;100.00;64830.25;5077117;27;45466;-63
2021/10/05 00:59:35;;;;;;;;;2.00;2.00;;;;;-146.80;100.00;64830.25;5077545;27;45452;-65
2021/10/05 01:02:01;;;;;;;;;4.00;1.75;;;;;-146.80;100.00;64830.25;5076216;28;45616;-63
2021/10/05 01:04:28;;;;;;;;;2.25;2.25;;;;;-146.80;100.00;64830.25;5077359;28;45523;-64
2021/10/05 01:06:57;;;;;;;;;5.00;2.00;;;;;-146.80;100.00;64830.25;5076860;28;45328;-63
2021/10/05 01:09:23;;;;;;;;;1.00;1.00;;;;;-146.80;100.00;64830.25;5077208;28;45386;-64
2021/10/05 01:11:49;;;;;;;;;1.00;1.00;;;;;-146.80;100.00;64830.25;5093088;27;45362;-62
2021/10/05 01:14:14;;;;;;;;;2.50;0.25;;;;;-146.80;100.00;64830.25;5076884;27;46167;-62
2021/10/05 01:16:39;;;;;;;;;1.00;1.00;;;;;-146.80;100.00;64830.25;5076854;27;45351;-66
2021/10/05 01:19:05;;;;;;;;;3.00;1.00;;;;;-146.80;100.00;64830.25;5077216;27;45329;-64
2021/10/05 01:21:30;;;;;;;;;1.50;1.50;;;;;-146.80;100.00;64830.25;5074027;27;45534;-64
2021/10/05 01:24:13;;;;;;;;;5.25;1.50;;;;;-146.80;100.00;64830.25;5076931;27;45680;-62
2021/10/05 01:26:39;;;;;;;;;2.50;1.50;;;;;-146.80;100.00;64830.25;5076805;27;45296;-62
2021/10/05 01:29:06;;;;;;;;;2.50;1.00;;;;;-146.80;100.00;64830.25;5077184;27;45386;-62
2021/10/05 01:31:33;;;;;;;;;2.50;0.75;;;;;-146.80;100.00;64830.25;5077269;27;45493;-63
2021/10/05 01:33:59;;;;;;;;;2.75;1.75;;;;;-146.80;100.00;64830.25;5075662;28;46461;-63
2021/10/05 01:36:25;;;;;;;;;1.75;1.00;;;;;-146.80;100.00;64830.25;5076420;27;45316;-61
2021/10/05 01:38:51;;;;;;;;;2.00;2.00;;;;;-146.80;100.00;64830.25;5076585;27;45393;-63
2021/10/05 01:41:17;;;;;;;;;2.25;2.00;;;;;-146.80;100.00;64830.25;5077005;27;45213;-62
2021/10/05 01:43:42;;;;;;;;;1.25;0.75;;;;;-146.80;100.00;64830.25;5076522;27;46500;-63
2021/10/05 01:46:13;;;;;;;;;1.00;1.00;;;;;-146.80;100.00;64830.25;5076529;27;45283;-62
2021/10/05 01:48:39;;;;;;;;;1.00;1.00;;;;;-146.80;100.00;64830.25;5092103;27;45293;-65
2021/10/05 01:51:04;;;;;;;;;2.50;1.00;;;;;-146.80;100.00;64830.25;5076684;27;45502;-62
2021/10/05 01:53:30;;;;;;;;;1.75;1.75;;;;;-146.80;100.00;64830.25;5076566;27;46038;-62
2021/10/05 01:55:55;;;;;;;;;4.25;1.00;;;;;-146.80;100.00;64830.25;5076702;27;45389;-63
2021/10/05 01:58:21;;;;;;;;;3.25;1.00;;;;;-146.80;100.00;64830.25;5076530;27;45562;-62
2021/10/05 02:00:46;;;;;;;;;3.75;1.50;;;;;-146.80;100.00;64830.25;5075825;27;45174;-63
2021/10/05 02:03:13;;;;;;;;;4.00;1.75;;;;;-146.80;100.00;64830.25;5076348;27;46344;-64
2021/10/05 02:05:41;;;;;;;;;2.75;2.00;;;;;-146.80;100.00;64830.25;5075109;28;45473;-66
2021/10/05 02:08:07;;;;;;;;;4.00;3.00;;;;;-146.80;100.00;64830.25;5075025;28;45392;-62
2021/10/05 02:10:33;;;;;;;;;4.25;2.75;;;;;-146.80;100.00;64830.25;5076915;27;45560;-63
2021/10/05 02:12:58;;;;;;;;;2.00;2.00;;;;;-146.80;100.00;64830.25;5076082;28;45268;-64
2021/10/05 02:15:23;;;;;;;;;2.00;1.75;;;;;-146.80;100.00;64830.25;5076936;27;45240;-63
2021/10/05 02:17:49;;;;;;;;;1.00;1.00;;;;;-146.80;100.00;64830.25;5076907;27;45460;-62
2021/10/05 02:20:14;;;;;;;;;2.75;0.75;;;;;-146.80;100.00;64830.25;5076325;27;45262;-64
2021/10/05 02:22:40;;;;;;;;;5.75;4.25;;;;;-146.80;100.00;64830.25;5076319;27;46531;-62
2021/10/05 02:25:06;;;;;;;;;12.00;9.25;;;;;-146.80;100.00;64830.25;5076283;27;45354;-65
2021/10/05 02:27:31;;;;;;;;;13.75;10.00;;;;;-146.80;100.00;64830.25;5076674;27;45322;-62
2021/10/05 02:29:57;;;;;;;;;20.00;17.50;;;;;-146.80;100.00;64830.25;5076204;27;45366;-63
2021/10/05 02:32:22;;;;;;;;;15.25;12.50;;;;;-146.80;100.00;64830.25;5074523;28;48091;-68
2021/10/05 02:34:48;;;;;;;;;12.75;6.00;;;;;-146.80;100.00;64830.25;5076032;27;45325;-62
2021/10/05 02:37:13;;;;;;;;;7.50;6.00;;;;;-146.80;100.00;64830.25;5076050;27;45272;-62
2021/10/05 02:39:39;;;;;;;;;5.00;3.00;;;;;-146.80;100.00;64830.25;5091730;27;45462;-61
2021/10/05 02:42:05;;;;;;;;;6.00;4.50;;;;;-146.80;100.00;64830.25;5076192;27;46626;-63
2021/10/05 02:44:30;;;;;;;;;5.50;3.75;;;;;-146.80;100.00;64830.25;5074720;28;45412;-62
2021/10/05 02:46:56;;;;;;;;;4.00;3.75;;;;;-146.80;100.00;64830.25;5075889;27;45471;-64
2021/10/05 02:49:21;;;;;;;;;3.75;3.00;;;;;-146.80;100.00;64830.25;5075832;27;45513;-64
2021/10/05 02:51:47;;;;;;;;;5.75;2.75;;;;;-146.80;100.00;64830.25;5091275;27;47173;-63
2021/10/05 02:54:12;;;;;;;;;5.00;2.25;;;;;-146.80;100.00;64830.25;5091193;27;45399;-65
2021/10/05 02:56:38;;;;;;;;;2.75;2.75;;;;;-146.80;100.00;64830.25;5075525;27;45431;-66
2021/10/05 02:59:03;;;;;;;;;3.25;2.00;;;;;-146.80;100.00;64830.25;5074720;27;45504;-66
2021/10/05 03:01:29;;;;;;;;;2.50;2.50;;;;;-146.80;100.00;64830.25;5075272;27;45883;-66
2021/10/05 03:03:54;;;;;;;;;1.00;1.00;;;;;-146.80;100.00;64830.25;5075376;27;45350;-65
2021/10/05 03:06:20;;;;;;;;;4.25;3.50;;;;;-146.80;100.00;64830.25;5075503;28;45227;-66
2021/10/05 03:08:46;;;;;;;;;3.75;2.00;;;;;-146.80;100.00;64830.25;5075643;27;45185;-62
2021/10/05 03:11:11;;;;;;;;;5.00;2.00;;;;;-146.80;100.00;64830.25;5074890;27;45758;-62
2021/10/05 03:13:40;;;;;;;;;4.50;2.75;;;;;-146.80;100.00;64830.25;5075648;27;45399;-63
2021/10/05 03:16:07;;;;;;;;;5.00;2.75;;;;;-146.80;100.00;64830.25;5074130;28;45357;-62
2021/10/05 03:18:33;;;;;;;;;2.50;2.00;;;;;-146.80;100.00;64830.25;5075650;27;45419;-61
2021/10/05 03:20:59;;;;;;;;;0.50;0.50;;;;;-146.80;100.00;64830.25;5073509;27;45437;-63
2021/10/05 03:23:25;;;;;;;;;3.00;1.75;;;;;-146.80;100.00;64830.25;5074220;27;45989;-64
2021/10/05 03:25:51;;;;;;;;;2.00;2.00;;;;;-146.80;100.00;64830.25;5074578;27;45247;-62
2021/10/05 03:28:16;;;;;;;;;2.00;2.00;;;;;-146.80;100.00;64830.25;5074393;27;45200;-63
2021/10/05 03:30:42;;;;;;;;;3.00;2.00;;;;;-146.80;100.00;64830.25;5074336;27;46687;-64
2021/10/05 03:33:07;;;;;;;;;3.00;2.00;;;;;-146.80;100.00;64830.25;5074783;27;45262;-61
2021/10/05 03:35:33;;;;;;;;;3.00;3.00;;;;;-146.80;100.00;64830.25;5074954;27;45255;-63
2021/10/05 03:37:58;;;;;;;;;2.75;2.75;;;;;-146.80;100.00;64830.25;5073603;28;45227;-64
2021/10/05 03:40:24;;;;;;;;;4.00;4.00;;;;;-146.80;100.00;64830.25;5074146;27;46074;-68
2021/10/05 03:42:49;;;;;;;;;6.00;3.00;;;;;-146.80;100.00;64830.25;5074525;27;45653;-66
2021/10/05 03:45:15;;;;;;;;;8.25;5.00;;;;;-146.80;100.00;64830.25;5074526;27;45439;-67
2021/10/05 03:47:40;;;;;;;;;4.00;4.00;;;;;-146.80;100.00;64830.25;5074653;27;45581;-63
2021/10/05 03:50:08;;;;;;;;;6.00;5.50;;;;;-146.80;100.00;64830.25;5074398;27;45446;-63
2021/10/05 03:52:34;;;;;;;;;9.50;3.25;;;;;-146.80;100.00;64830.25;5074444;27;45461;-66
2021/10/05 03:54:59;;;;;;;;;4.25;3.50;;;;;-146.80;100.00;64830.25;5074571;27;45358;-63
2021/10/05 03:57:25;;;;;;;;;5.50;3.75;;;;;-146.80;100.00;64830.25;5075049;27;45278;-63
2021/10/05 03:59:50;;;;;;;;;3.25;3.00;;;;;-146.80;100.00;64830.25;5074621;27;46358;-61
2021/10/05 04:02:16;;;;;;;;;8.25;5.50;;;;;-146.80;100.00;64830.25;5074833;27;45223;-62
2021/10/05 04:04:41;;;;;;;;;7.50;5.00;;;;;-146.80;100.00;64830.25;5075018;27;45295;-62
2021/10/05 04:07:07;;;;;;;;;6.75;2.00;;;;;-146.80;100.00;64830.25;5075558;27;45300;-63
2021/10/05 04:09:32;;;;;;;;;7.00;5.75;;;;;-146.80;100.00;64830.25;5074684;27;45417;-63
2021/10/05 04:11:57;;;;;;;;;4.75;4.00;;;;;-146.80;100.00;64830.25;5074697;27;45402;-62
2021/10/05 04:14:23;;;;;;;;;4.50;4.50;;;;;-146.80;100.00;64830.25;5074980;27;45275;-64
2021/10/05 04:16:48;;;;;;;;;4.50;4.25;;;;;-146.80;100.00;64830.25;5075509;27;45169;-65
2021/10/05 04:19:14;;;;;;;;;4.00;2.00;;;;;-146.80;100.00;64830.25;5073335;28;48314;-65
2021/10/05 04:21:39;;;;;;;;;6.50;4.75;;;;;-146.80;100.00;64830.25;5073312;28;45903;-64
2021/10/05 04:24:05;;;;;;;;;4.75;3.00;;;;;-146.80;100.00;64830.25;5075306;28;45449;-64
2021/10/05 04:26:30;;;;;;;;;7.25;4.00;;;;;-146.80;100.00;64830.25;5076621;28;45369;-64
2021/10/05 04:28:55;;;;;;;;;5.00;3.50;;;;;-146.80;100.00;64830.25;5076641;28;46874;-63
2021/10/05 04:31:21;;;;;;;;;3.50;2.75;;;;;-146.80;100.00;64830.25;5077856;27;45403;-64
2021/10/05 04:33:46;;;;;;;;;3.25;3.00;;;;;-146.80;100.00;64830.25;5077752;27;45413;-62
2021/10/05 04:36:12;;;;;;;;;2.00;2.00;;;;;-146.80;100.00;64830.25;5077951;27;45475;-63
2021/10/05 04:38:37;;;;;;;;;2.75;2.75;;;;;-146.80;100.00;64830.25;5076392;27;46229;-65
2021/10/05 04:41:02;;;;;;;;;15.75;15.75;;;;;-146.80;100.00;64830.25;5076067;28;45298;-65
2021/10/05 04:43:28;;;;;;;;;3.00;2.75;;;;;-146.80;100.00;64830.25;5093106;27;45865;-63
2021/10/05 04:45:53;;;;;;;;;5.25;3.25;;;;;-146.80;100.00;64830.25;5077621;27;45244;-63
2021/10/05 04:48:19;;;;;;;;;3.00;3.00;;;;;-146.80;100.00;64830.25;5077357;27;45356;-64
2021/10/05 04:50:44;;;;;;;;;5.00;3.00;;;;;-146.80;100.00;64830.25;5077077;27;45339;-62
2021/10/05 04:53:10;;;;;;;;;4.00;4.00;;;;;-146.80;100.00;64830.25;5077714;28;45358;-62
2021/10/05 04:55:37;;;;;;;;;3.00;3.00;;;;;-146.80;100.00;64830.25;5077411;27;45170;-64
2021/10/05 04:58:03;;;;;;;;;4.00;4.00;;;;;-146.80;100.00;64830.25;5077102;27;45519;-65
2021/10/05 05:00:28;;;;;;;;;6.00;3.00;;;;;-146.80;100.00;64830.25;5075839;28;45342;-64
2021/10/05 05:02:53;;;;;;;;;5.25;3.00;;;;;-146.80;100.00;64830.25;5077432;28;45282;-62
2021/10/05 05:05:19;;;;;;;;;5.00;3.25;;;;;-146.80;100.00;64830.25;5077570;27;45691;-63
2021/10/05 05:07:44;;;;;;;;;4.25;4.25;;;;;-146.80;100.00;64830.25;5077224;27;46001;-62
2021/10/05 05:10:10;;;;;;;;;10.50;7.00;;;;;-146.80;100.00;64830.25;5077414;27;45408;-64
2021/10/05 05:12:35;;;;;;;;;4.00;3.75;;;;;-146.80;100.00;64830.25;5077321;27;45423;-65
2021/10/05 05:15:01;;;;;;;;;5.25;4.00;;;;;-146.80;100.00;64830.25;5077411;28;45573;-64
2021/10/05 05:17:27;;;;;;;;;5.25;4.00;;;;;-146.80;100.00;64830.25;5076621;28;45596;-65
2021/10/05 05:19:53;;;;;;;;;4.00;4.00;;;;;-146.80;100.00;64830.25;5076922;27;45264;-64
2021/10/05 05:22:18;;;;;;;;;6.00;5.00;;;;;-146.80;100.00;64830.25;5092570;27;45350;-63
2021/10/05 05:24:44;;;;;;;;;5.00;4.50;;;;;-146.80;100.00;64830.25;5075876;28;46056;-65
2021/10/05 05:27:09;;;;;;;;;7.75;4.25;;;;;-146.80;100.00;64830.25;5077344;27;45735;-66
2021/10/05 05:29:35;;;;;;;;;7.25;4.75;;;;;-146.80;100.00;64830.25;5077287;27;45230;-64
2021/10/05 05:32:00;;;;;;;;;6.50;4.00;;;;;-146.80;100.00;64830.25;5076897;27;45658;-62
2021/10/05 05:34:26;;;;;;;;;4.00;3.25;;;;;-146.80;100.00;64830.25;5077241;28;45465;-65
2021/10/05 05:36:52;;;;;;;;;5.00;3.50;;;;;-146.80;100.00;64830.25;5075275;28;46338;-63
2021/10/05 05:39:18;;;;;;;;;7.75;3.50;;;;;-146.80;100.00;64830.25;5076190;27;45256;-63
2021/10/05 05:41:46;;;;;;;;;8.50;3.50;;;;;-146.80;100.00;64830.25;5077104;27;45236;-62
2021/10/05 05:44:14;;;;;;;;;3.50;2.75;;;;;-146.80;100.00;64830.25;5077006;27;45472;-63
2021/10/05 05:46:40;;;;;;;;;3.00;3.00;;;;;-146.80;100.00;64830.25;5076531;27;46095;-62
2021/10/05 05:49:05;;;;;;;;;3.50;3.50;;;;;-146.80;100.00;64830.25;5076825;28;45219;-63
2021/10/05 05:51:31;;;;;;;;;7.25;5.25;;;;;-146.80;100.00;64830.25;5076926;27;45306;-64
2021/10/05 05:53:56;;;;;;;;;5.00;5.00;;;;;-146.80;100.00;64830.25;5076619;28;45620;-62
2021/10/05 05:56:22;;;;;;;;;5.50;5.00;;;;;-146.80;100.00;64830.25;5075964;27;45374;-62
2021/10/05 05:58:49;;;;;;;;;5.75;5.75;;;;;-146.80;100.00;64830.25;5076405;27;45457;-65
2021/10/05 06:01:15;;;;;;;;;8.75;7.25;;;;;-146.80;100.00;64830.25;5076781;27;45433;-64
2021/10/05 06:03:40;;;;;;;;;8.00;6.00;;;;;-146.80;100.00;64830.25;5076802;27;45367;-64
2021/10/05 06:06:06;;;;;;;;;9.00;7.00;;;;;-146.80;100.00;64830.25;5076075;28;45514;-65
2021/10/05 06:08:31;;;;;;;;;9.00;8.00;;;;;-146.80;100.00;64830.25;5074649;28;45322;-64
2021/10/05 06:10:57;;;;;;;;;9.00;9.00;;;;;-146.80;100.00;64830.25;5076081;27;45324;-64
2021/10/05 06:13:22;;;;;;;;;12.00;9.00;;;;;-146.80;100.00;64830.25;5076626;27;45330;-64
2021/10/05 06:15:47;;;;;;;;;12.25;10.00;;;;;-146.80;100.00;64830.25;5075786;27;45414;-62
2021/10/05 06:18:13;;;;;;;;;12.75;10.75;;;;;-146.80;100.00;64830.25;5091740;27;45430;-64
2021/10/05 06:20:38;;;;;;;;;12.00;10.00;;;;;-146.80;100.00;64830.25;5074198;28;45397;-63
2021/10/05 06:23:04;;;;;;;;;10.00;9.00;;;;;-146.80;100.00;64830.25;5075872;28;45288;-62
2021/10/05 06:25:31;;;;;;;;;11.50;10.50;;;;;-146.80;100.00;64830.25;5075291;27;46644;-64
2021/10/05 06:27:58;;;;;;;;;11.75;10.75;;;;;-146.80;100.00;64830.25;5091191;27;45353;-62
2021/10/05 06:30:24;;;;;;;;;14.50;11.75;;;;;-146.80;100.00;64830.25;5075658;27;45235;-67
2021/10/05 06:32:53;;;;;;;;;10.75;10.25;;;;;-146.80;100.00;64830.25;5075735;27;45531;-64
2021/10/05 06:35:25;;;;;;;;;14.50;11.25;;;;;-146.80;100.00;64830.25;5073999;28;46449;-65
2021/10/05 06:37:53;;;;;;;;;12.50;12.25;;;;;-146.80;100.00;64830.25;5075554;27;45304;-63
2021/10/05 06:40:20;;;;;;;;;11.50;11.25;;;;;-146.80;100.00;64830.25;5089502;27;45703;-63
2021/10/05 06:42:46;;;;;;;;;17.50;14.75;;;;;-146.80;100.00;64830.25;5075392;27;45320;-63
2021/10/05 06:45:11;;;;;;;;;13.50;10.75;;;;;-146.80;100.00;64830.25;5075131;28;46539;-64
2021/10/05 06:47:37;;;;;;;;;7.75;5.50;;;;;-146.80;100.00;64830.25;5074242;27;45405;-63
2021/10/05 06:50:03;;;;;;;;;12.75;12.50;;;;;-146.80;100.00;64830.25;5073402;28;45259;-65
2021/10/05 06:52:29;;;;;;;;;14.00;12.00;;;;;-146.80;100.00;64830.25;5090896;27;45357;-63
2021/10/05 06:54:55;;;;;;;;;14.00;14.00;;;;;-146.80;100.00;64830.25;5073318;28;47026;-63
2021/10/05 06:57:21;;;;;;;;;9.75;9.75;;;;;-146.80;100.00;64830.25;5073639;28;45430;-64
2021/10/05 06:59:46;;;;;;;;;13.00;13.00;;;;;-146.80;100.00;64830.25;5074318;27;45364;-62
2021/10/05 07:02:12;;;;;;;;;14.25;13.50;;;;;-146.80;100.00;64830.25;5075131;28;45455;-67
2021/10/05 07:04:37;;;;;;;;;15.75;15.00;;;;;-146.80;100.00;64830.25;5072958;28;48184;-62
2021/10/05 07:07:02;;;;;;;;;12.25;9.25;;;;;-146.80;100.00;64830.25;5075162;27;45294;-64
2021/10/05 07:09:28;;;;;;;;;10.25;9.00;;;;;-146.80;100.00;64830.25;5073655;28;45490;-65
2021/10/05 07:11:53;;;;;;;;;11.50;9.75;;;;;-146.80;100.00;64830.25;5075055;27;45581;-64
2021/10/05 07:14:18;;;;;;;;;9.25;8.75;;;;;-146.80;100.00;64830.25;5075075;27;45453;-63
2021/10/05 07:16:44;;;;;;;;;10.00;10.00;;;;;-146.80;100.00;64830.25;5075295;27;45421;-63
2021/10/05 07:19:09;;;;;;;;;9.00;6.75;;;;;-146.80;100.00;64830.25;5075213;27;45805;-62
2021/10/05 07:21:35;;;;;;;;;9.25;8.75;;;;;-146.80;100.00;64830.25;5075557;28;45228;-66
2021/10/05 07:24:00;;;;;;;;;7.25;7.25;;;;;-146.80;100.00;64830.25;5075294;27;46210;-63
2021/10/05 07:26:25;;;;;;;;;11.25;8.00;;;;;-146.80;100.00;64830.25;5073686;28;45327;-68
2021/10/05 07:28:51;;;;;;;;;6.50;6.00;;;;;-146.80;100.00;64830.25;5075254;27;45232;-64
2021/10/05 07:31:16;;;;;;;;;9.25;8.25;;;;;-146.80;100.00;64830.25;5091298;27;45279;-63
2021/10/05 07:33:43;;;;;;;;;7.00;6.75;;;;;-146.80;100.00;64830.25;5073516;28;47406;-63
2021/10/05 07:36:08;;;;;;;;;7.00;5.50;;;;;-146.80;100.00;64830.25;5074865;28;45350;-62
2021/10/05 07:38:36;;;;;;;;;6.50;6.00;;;;;-146.80;100.00;64830.25;5074843;28;45626;-64
2021/10/05 07:41:01;;;;;;;;;10.00;10.00;;;;;-146.80;100.00;64830.25;5075055;27;45476;-64
2021/10/05 07:43:27;;;;;;;;;9.25;6.50;;;;;-146.80;100.00;64830.25;5089952;27;46940;-63
2021/10/05 07:45:53;;;;;;;;;9.75;9.00;;;;;-146.80;100.00;64830.25;5073337;28;45402;-67
2021/10/05 07:48:19;;;;;;;;;7.50;7.50;;;;;-146.80;100.00;64830.25;5073172;28;45521;-63
2021/10/05 07:50:44;;;;;;;;;7.00;5.25;;;;;-146.80;100.00;64830.25;5074933;27;45536;-65
2021/10/05 07:53:10;;;;;;;;;10.50;10.50;;;;;-146.80;100.00;64830.25;5074838;28;45414;-66
2021/10/05 07:55:35;;;;;;;;;9.00;7.50;;;;;-146.80;100.00;64830.25;5074721;27;45221;-64
2021/10/05 07:58:01;;;;;;;;;9.25;7.25;;;;;-146.80;100.00;64830.25;5074774;27;45233;-64
2021/10/05 08:00:27;;;;;;;;;3.75;3.25;;;;;-146.80;100.00;64830.25;5077643;27;45568;-66
2021/10/05 08:02:53;;;;;;;;;6.50;5.50;;;;;-146.80;100.00;64830.25;5093958;27;47967;-65
2021/10/05 08:05:19;;;;;;;;;7.50;6.00;;;;;-146.80;100.00;64830.25;5078926;27;45274;-63
2021/10/05 08:07:46;;;;;;;;;7.50;6.25;;;;;-146.80;100.00;64830.25;5094537;27;45505;-66
2021/10/05 08:10:13;;;;;;;;;6.25;6.25;;;;;-146.80;100.00;64830.25;5078695;27;45269;-63
2021/10/05 08:12:40;;;;;;;;;7.75;5.75;;;;;-146.80;100.00;64830.25;5078662;27;46362;-65
2021/10/05 08:15:07;;;;;;;;;6.50;6.50;;;;;-146.80;100.00;64830.25;5093131;27;45799;-64
2021/10/05 08:17:33;;;;;;;;;6.00;6.00;;;;;-146.80;100.00;64830.25;5076572;28;45483;-65
2021/10/05 08:19:58;;;;;;;;;5.25;5.25;;;;;-146.80;100.00;64830.25;5077848;27;45538;-66
2021/10/05 08:22:24;;;;;;;;;5.75;5.00;;;;;-146.80;100.00;64830.25;5077190;28;45557;-65
2021/10/05 08:24:49;;;;;;;;;7.00;7.00;;;;;-146.80;100.00;64830.25;5093253;27;45497;-68
2021/10/05 08:27:14;;;;;;;;;4.75;4.75;;;;;-146.80;100.00;64830.25;5077638;27;45321;-64
2021/10/05 08:29:42;;;;;;;;;6.25;5.00;;;;;-146.80;100.00;64830.25;5077751;27;45312;-67
2021/10/05 08:32:08;;;;;;;;;4.50;4.25;;;;;-146.80;100.00;64830.25;5092867;27;47282;-64
2021/10/05 08:34:34;;;;;;;;;3.25;3.25;;;;;-146.80;100.00;64830.25;5077193;27;45423;-64
2021/10/05 08:37:00;;;;;;;;;6.00;5.00;;;;;-146.80;100.00;64830.25;5076078;27;45493;-64
2021/10/05 08:39:25;;;;;;;;;4.75;4.00;;;;;-146.80;100.00;64830.25;5077572;27;45249;-65
2021/10/05 08:41:51;;;;;;;;;6.00;4.75;;;;;-146.80;100.00;64830.25;5076966;28;45487;-63
2021/10/05 08:44:17;;;;;;;;;5.00;3.25;;;;;-146.80;100.00;64830.25;5077703;27;45368;-63
2021/10/05 08:46:42;;;;;;;;;3.75;3.00;;;;;-146.80;100.00;64830.25;5077249;28;45466;-67
2021/10/05 08:49:08;;;;;;;;;3.00;2.25;;;;;-146.80;100.00;64830.25;5076083;28;45548;-65
2021/10/05 08:51:35;;;;;;;;;5.25;4.00;;;;;-146.80;100.00;64830.25;5092587;27;46799;-64
2021/10/05 08:54:00;;;;;;;;;4.00;3.50;;;;;-146.80;100.00;64830.25;5077119;27;45443;-63
2021/10/05 08:56:26;;;;;;;;;3.50;2.50;;;;;-146.80;100.00;64830.25;5075501;28;45613;-66
2021/10/05 08:58:51;;;;;;;;;3.00;3.00;;;;;-146.80;100.00;64830.25;5077118;27;45523;-64
2021/10/05 09:01:18;;;;;;;;;2.50;2.00;;;;;-146.80;100.00;64830.25;5076738;27;45247;-68
2021/10/05 09:03:52;;;;;;;;;2.50;2.00;;;;;-146.80;100.00;64830.25;5076700;27;45481;-62
2021/10/05 09:06:20;;;;;;;;;1.75;1.00;;;;;-146.80;100.00;64830.25;5076988;27;45393;-65
2021/10/05 09:08:47;;;;;;;;;1.00;1.00;;;;;-146.80;100.00;64830.25;5092620;27;45277;-64
2021/10/05 09:11:16;;;;;;;;;0.50;0.00;;;;;-146.80;100.00;64830.25;5076346;27;46582;-65
2021/10/05 09:13:45;;;;;;;;;1.75;1.75;;;;;-146.80;100.00;64830.25;5076819;27;45469;-64
2021/10/05 09:16:20;;;;;;;;;1.50;1.00;;;;;-146.80;100.00;64830.25;5075800;28;45540;-63
2021/10/05 09:18:55;;;;;;;;;1.00;1.00;;;;;-146.80;100.00;64830.25;5077638;27;45332;-63
2021/10/05 09:21:22;;;;;;;;;3.00;2.00;;;;;-146.80;100.00;64830.25;5093658;27;48561;-64
2021/10/05 09:23:52;;;;;;;;;3.00;2.25;;;;;-146.80;100.00;64830.25;5077556;28;45435;-64
2021/10/05 09:26:18;;;;;;;;;2.75;1.50;;;;;-146.80;100.00;64830.25;5078075;27;45528;-65
2021/10/05 09:28:43;;;;;;;;;2.00;1.75;;;;;-146.80;100.00;64830.25;5077733;27;45526;-65
2021/10/05 09:31:08;;;;;;;;;1.00;1.00;;;;;-146.80;100.00;64830.25;5077619;27;45595;-66
2021/10/05 09:33:35;;;;;;;;;2.00;2.00;;;;;-146.80;100.00;64830.25;5075984;28;45354;-64
2021/10/05 09:36:02;;;;;;;;;7.75;6.00;;;;;-146.80;100.00;64830.25;5077489;27;45336;-63
2021/10/05 09:38:30;;;;;;;;;2.25;2.00;;;;;-146.80;100.00;64830.25;5076586;28;45215;-66
2021/10/05 09:41:09;;;;;;;;;2.50;2.00;;;;;-146.80;100.00;64830.25;5074795;28;47307;-65
2021/10/05 09:43:35;;;;;;;;;5.00;4.25;;;;;-146.80;100.00;64830.25;5076546;28;45508;-64
2021/10/05 09:46:15;;;;;;;;;3.25;3.00;;;;;-146.80;100.00;64830.25;5076481;27;45295;-66
2021/10/05 09:48:42;;;;;;;;;1.75;1.75;;;;;-146.80;100.00;64830.25;5076536;27;45632;-66
2021/10/05 09:51:24;;;;;;;;;4.50;4.50;;;;;-146.80;100.00;64830.25;5091629;27;47292;-66
2021/10/05 09:53:56;;;;;;;;;5.00;3.00;;;;;-146.80;100.00;64830.25;5076621;27;45444;-67
2021/10/05 09:56:23;;;;;;;;;7.00;4.00;;;;;-146.80;100.00;64830.25;5092503;27;45262;-66
2021/10/05 09:58:52;;;;;;;;;5.75;5.00;;;;;-146.80;100.00;64830.25;5076416;27;45263;-68
2021/10/05 10:01:23;;;;;;;;;4.00;3.25;;;;;-146.80;100.00;64830.25;5075113;28;46704;-67
2021/10/05 10:03:50;;;;;;;;;4.50;2.00;;;;;-146.80;100.00;64830.25;5077168;28;45296;-65
2021/10/05 10:06:16;;;;;;;;;5.25;5.00;;;;;-146.80;100.00;64830.25;5076714;27;45366;-64
2021/10/05 10:08:44;;;;;;;;;4.50;4.50;;;;;-146.80;100.00;64830.25;5077244;27;45513;-64
2021/10/05 10:11:10;;;;;;;;;6.50;5.50;;;;;-146.80;100.00;64830.25;5092249;27;45827;-65
2021/10/05 10:13:35;;;;;;;;;5.75;5.00;;;;;-146.80;100.00;64830.25;5076252;28;45453;-64
2021/10/05 10:16:01;;;;;;;;;3.00;2.00;;;;;-146.80;100.00;64830.25;5076284;27;45366;-66
2021/10/05 10:18:27;;;;;;;;;5.00;3.75;;;;;-146.80;100.00;64830.25;5076594;27;45196;-66
2021/10/05 10:21:08;;;;;;;;;4.75;3.00;;;;;-146.80;100.00;64830.25;5074949;27;46774;-66
2021/10/05 10:23:36;;;;;;;;;3.00;1.50;;;;;-146.80;100.00;64830.25;5074962;27;45476;-65
2021/10/05 10:26:04;;;;;;;;;4.00;3.25;;;;;-146.80;100.00;64830.25;5075855;28;45291;-67
2021/10/05 10:28:39;;;;;;;;;7.75;4.75;;;;;-146.80;100.00;64830.25;5075566;27;45521;-65
2021/10/05 10:31:08;;;;;;;;;4.50;4.50;;;;;-146.80;100.00;64830.25;5075427;27;46283;-66
2021/10/05 10:33:52;;;;;;;;;4.75;4.75;;;;;-146.80;100.00;64830.25;5075757;27;45494;-65
2021/10/05 10:36:33;;;;;;;;;1.00;1.00;;;;;-146.80;100.00;64830.25;5075770;27;45342;-66
2021/10/05 10:39:10;;;;;;;;;7.00;5.00;;;;;-146.80;100.00;64830.25;5091397;27;45549;-64
2021/10/05 10:41:39;;;;;;;;;3.00;2.25;;;;;-146.80;100.00;64830.25;5074507;27;46202;-66
2021/10/05 10:44:06;;;;;;;;;7.50;4.00;;;;;-146.80;100.00;64830.25;5091046;27;45360;-66
2021/10/05 10:46:36;;;;;;;;;3.00;2.25;;;;;-146.80;100.00;64830.25;5074468;28;45278;-64
2021/10/05 10:49:11;;;;;;;;;5.25;4.00;;;;;-146.80;100.00;64830.25;5076143;27;45300;-64
2021/10/05 10:51:40;;;;;;;;;9.00;5.00;;;;;-146.80;100.00;64830.25;5075261;27;46320;-65
2021/10/05 10:54:13;;;;;;;;;5.00;3.00;;;;;-146.80;100.00;64830.25;5090296;27;45322;-67
2021/10/05 10:56:40;;;;;;;;;8.25;6.00;;;;;-146.80;100.00;64830.25;5091602;27;45365;-65
2021/10/05 10:59:12;;;;;;;;;2.50;2.50;;;;;-146.80;100.00;64830.25;5091164;27;45509;-65
2021/10/05 11:01:49;;;;;;;;;5.00;3.00;;;;;-146.80;100.00;64830.25;5073778;28;46497;-66
2021/10/05 11:04:17;;;;;;;;;7.25;3.00;;;;;-146.80;100.00;64830.25;5090448;27;45228;-66